Time;durP1;ratioP1;P1;durP2;ratioP2;P2;SDS_P1;SDS_P2;PMS_P1;PMS_P2;Temp;Humidity;BMP_temperature;BMP_pressure;BME280_temperature;BME280_humidity;BME280_pressure;Samples;Min_cycle;Max_cycle;Signal;HPM_P1;HPM_P2
2022/10/15 00:00:18;;;;;;;59.75;34.63;;;12.40;99.90;;;;;;4976242;28;20076;-46
2022/10/15 00:07:19;;;;;;;64.82;36.47;;;12.40;99.90;;;;;;4990478;28;20394;-43
2022/10/15 00:13:28;;;;;;;59.00;35.50;;;12.40;99.90;;;;;;4992952;28;20550;-49
2022/10/15 00:39:16;;;;;;;70.57;40.00;;;12.30;99.90;;;;;;5008556;28;20044;-45
2022/10/15 00:59:44;;;;;;;76.55;43.72;;;12.30;99.90;;;;;;4984514;28;20045;-45
2022/10/15 01:13:30;;;;;;;68.90;39.25;;;12.30;99.90;;;;;;4997122;28;20390;-45
2022/10/15 01:34:23;;;;;;;69.97;41.45;;;12.30;99.90;;;;;;4948154;28;20098;-46
2022/10/15 01:44:11;;;;;;;63.00;39.33;;;12.30;99.90;;;;;;4951809;28;20542;-44
2022/10/15 01:50:20;;;;;;;76.15;41.88;;;12.30;99.90;;;;;;4940684;28;20510;-47
2022/10/15 02:03:50;;;;;;;66.75;39.25;;;12.20;99.90;;;;;;4995202;28;20153;-43
2022/10/15 02:21:11;;;;;;;64.88;38.83;;;12.20;99.90;;;;;;5011835;28;20549;-44
2022/10/15 02:35:00;;;;;;;61.28;37.88;;;12.20;99.90;;;;;;5003874;28;20041;-43
2022/10/15 02:41:09;;;;;;;56.95;35.67;;;12.20;99.90;;;;;;5012937;28;20045;-44
2022/10/15 02:47:17;;;;;;;62.97;36.30;;;12.20;99.90;;;;;;5007567;28;20029;-45
2022/10/15 02:53:24;;;;;;;61.50;35.30;;;12.20;99.90;;;;;;5012323;28;20121;-43
2022/10/15 02:59:33;;;;;;;51.88;32.53;;;12.20;99.90;;;;;;5012943;28;20045;-46
2022/10/15 03:06:02;;;;;;;49.97;33.00;;;12.20;99.90;;;;;;5009238;28;20033;-45
2022/10/15 03:12:09;;;;;;;58.10;34.63;;;12.20;99.90;;;;;;5006335;28;20458;-48
2022/10/15 03:29:05;;;;;;;58.53;34.08;;;12.20;99.90;;;;;;4933442;29;20067;-46
2022/10/15 03:39:43;;;;;;;55.22;33.45;;;12.20;99.90;;;;;;4920829;29;20425;-45
2022/10/15 03:49:31;;;;;;;58.25;35.65;;;12.10;99.90;;;;;;4986463;28;20394;-45
2022/10/15 03:59:21;;;;;;;67.47;36.83;;;12.10;99.90;;;;;;4978010;28;20037;-45
2022/10/15 04:20:26;;;;;;;83.05;40.03;;;12.00;99.90;;;;;;4994030;28;20041;-45
2022/10/15 04:27:11;;;;;;;71.10;40.17;;;12.00;99.90;;;;;;4979535;28;20033;-43
2022/10/15 04:33:19;;;;;;;74.72;39.95;;;11.90;99.90;;;;;;4982893;28;20398;-43
2022/10/15 04:48:08;;;;;;;87.40;44.03;;;11.80;99.90;;;;;;4997136;28;20150;-46
2022/10/15 05:01:38;;;;;;;80.22;45.28;;;11.70;99.90;;;;;;4986347;28;20045;-45
2022/10/15 05:07:47;;;;;;;89.72;47.00;;;11.60;99.90;;;;;;4980618;28;20069;-43
2022/10/15 05:17:36;;;;;;;81.47;45.50;;;11.50;99.90;;;;;;4979550;28;20030;-46
2022/10/15 05:23:46;;;;;;;75.65;41.08;;;11.50;99.90;;;;;;4996960;28;20085;-46
2022/10/15 05:37:36;;;;;;;83.68;47.85;;;11.60;99.90;;;;;;4981702;28;20049;-44
2022/10/15 06:00:38;;;;;;;103.18;51.45;;;11.60;99.90;;;;;;5010573;28;20057;-44
2022/10/15 06:07:49;;;;;;;102.82;51.38;;;11.60;99.90;;;;;;4995200;28;20123;-45
2022/10/15 06:29:14;;;;;;;95.30;50.58;;;11.80;99.90;;;;;;4953120;28;20038;-45
2022/10/15 06:35:21;;;;;;;108.07;51.97;;;11.80;99.90;;;;;;4953615;29;20071;-45
2022/10/15 06:41:28;;;;;;;101.65;51.67;;;11.90;99.90;;;;;;4947009;28;20086;-47
2022/10/15 07:00:26;;;;;;;101.72;51.35;;;12.10;99.90;;;;;;4987916;28;20118;-48
2022/10/15 07:06:49;;;;;;;108.15;52.45;;;12.20;99.90;;;;;;4986855;28;20053;-44
2022/10/15 07:17:28;;;;;;;111.50;53.20;;;12.30;99.90;;;;;;4993256;28;20084;-45
2022/10/15 07:37:33;;;;;;;90.07;48.42;;;12.60;99.90;;;;;;4903524;29;20031;-49
2022/10/15 07:47:46;;;;;;;79.60;46.22;;;12.60;99.90;;;;;;4913955;29;20543;-50
2022/10/15 08:01:52;;;;;;;94.97;53.28;;;12.70;99.90;;;;;;4945413;28;20526;-46
2022/10/15 08:08:01;;;;;;;90.80;53.17;;;12.70;99.90;;;;;;4993735;28;20037;-45
2022/10/15 08:14:09;;;;;;;91.78;50.85;;;12.90;99.90;;;;;;5000094;28;20073;-46
2022/10/15 08:20:16;;;;;;;96.22;53.83;;;12.90;99.90;;;;;;5010465;28;20061;-43
2022/10/15 08:30:45;;;;;;;88.43;52.22;;;13.10;99.90;;;;;;4939834;28;20787;-45
2022/10/15 08:36:52;;;;;;;85.50;49.17;;;13.20;99.90;;;;;;4946277;28;20058;-45
2022/10/15 08:46:42;;;;;;;86.70;50.78;;;13.30;99.90;;;;;;4949786;28;20080;-43
2022/10/15 09:01:40;;;;;;;84.30;49.05;;;13.40;99.90;;;;;;5000852;28;20125;-45
2022/10/15 09:08:07;;;;;;;88.85;49.40;;;13.40;99.90;;;;;;5006263;28;20081;-43
2022/10/15 09:17:55;;;;;;;86.50;44.60;;;13.30;99.90;;;;;;5011497;28;20068;-44
2022/10/15 09:24:04;;;;;;;95.20;45.88;;;13.30;99.90;;;;;;5011413;28;20041;-41
2022/10/15 09:41:00;;;;;;;91.72;47.20;;;13.30;99.90;;;;;;4964430;28;20058;-45
2022/10/15 09:50:52;;;;;;;61.08;33.40;;;13.50;99.90;;;;;;4963350;28;20074;-45
2022/10/15 10:05:29;;;;;;;52.00;29.80;;;13.50;99.90;;;;;;5011180;28;20030;-43
2022/10/15 10:15:28;;;;;;;45.50;28.90;;;13.60;99.90;;;;;;5002793;28;20068;-42
2022/10/15 10:21:38;;;;;;;48.58;27.42;;;13.70;99.90;;;;;;4994691;28;20092;-43
2022/10/15 10:27:45;;;;;;;43.45;26.92;;;13.80;99.90;;;;;;5001886;28;20398;-41
2022/10/15 10:33:53;;;;;;;45.72;28.13;;;14.00;99.90;;;;;;5010891;28;20060;-42
2022/10/15 10:50:47;;;;;;;40.53;26.15;;;14.80;99.90;;;;;;5001555;28;20097;-41
2022/10/15 10:56:55;;;;;;;37.65;25.55;;;14.90;99.90;;;;;;5004141;28;20057;-41
2022/10/15 11:11:37;;;;;;;37.03;25.42;;;15.00;99.90;;;;;;4987858;28;20172;-43
2022/10/15 11:17:49;;;;;;;39.45;24.65;;;15.00;99.90;;;;;;4989435;28;20032;-43
2022/10/15 11:27:28;;;;;;;34.25;21.60;;;15.20;99.90;;;;;;4985216;28;20080;-43
2022/10/15 11:38:05;;;;;;;28.77;21.35;;;15.20;99.90;;;;;;4946795;28;20455;-43
2022/10/15 11:44:25;;;;;;;27.90;21.13;;;15.30;99.90;;;;;;4952362;29;20067;-42
2022/10/15 11:54:31;;;;;;;28.63;21.35;;;15.50;99.90;;;;;;4952305;29;20482;-41
2022/10/15 12:12:26;;;;;;;31.42;22.55;;;15.70;99.90;;;;;;4992948;28;20037;-41
2022/10/15 12:18:35;;;;;;;27.92;21.30;;;15.80;99.90;;;;;;5008794;28;21124;-39
2022/10/15 12:25:30;;;;;;;31.80;22.10;;;15.80;99.90;;;;;;5012540;28;20084;-41
2022/10/15 12:31:48;;;;;;;31.48;21.95;;;15.70;99.90;;;;;;5012408;28;20037;-44
2022/10/15 12:38:30;;;;;;;31.52;22.25;;;15.80;99.90;;;;;;5011789;28;20033;-42
2022/10/15 12:44:38;;;;;;;32.53;22.55;;;15.70;99.90;;;;;;5005608;28;20029;-42
2022/10/15 12:51:34;;;;;;;32.78;21.55;;;15.70;99.90;;;;;;5016210;28;20052;-42
2022/10/15 13:01:30;;;;;;;32.75;22.92;;;15.50;99.90;;;;;;4996324;28;20049;-41
2022/10/15 13:15:38;;;;;;;28.23;19.75;;;15.50;99.90;;;;;;4941162;28;20047;-44
2022/10/15 13:29:21;;;;;;;24.63;17.33;;;15.50;99.90;;;;;;4971306;28;20462;-45
2022/10/15 13:39:27;;;;;;;24.67;16.48;;;15.50;99.90;;;;;;4972907;28;20150;-43
2022/10/15 13:45:34;;;;;;;20.17;14.15;;;15.50;99.90;;;;;;4962728;28;20030;-46
2022/10/15 13:55:24;;;;;;;18.58;13.20;;;15.40;99.90;;;;;;4969778;28;20589;-44
2022/10/15 14:05:16;;;;;;;14.82;11.13;;;15.50;99.90;;;;;;4994202;28;20041;-46
2022/10/15 14:23:27;;;;;;;13.32;9.57;;;15.50;99.90;;;;;;5014606;28;20069;-41
2022/10/15 14:29:40;;;;;;;15.15;9.75;;;15.60;99.90;;;;;;5007980;28;20390;-46
2022/10/15 14:36:02;;;;;;;12.60;9.18;;;15.60;99.90;;;;;;4975259;28;20030;-45
2022/10/15 14:53:18;;;;;;;12.30;8.88;;;15.70;99.90;;;;;;4997861;28;20029;-45
2022/10/15 14:59:29;;;;;;;12.70;10.18;;;15.80;99.90;;;;;;5002329;28;20041;-47
2022/10/15 15:09:19;;;;;;;13.05;9.75;;;15.80;99.90;;;;;;4993169;28;20125;-45
2022/10/15 15:20:26;;;;;;;7.55;6.53;;;15.80;99.90;;;;;;5026285;28;20081;-46
2022/10/15 15:26:35;;;;;;;8.20;5.93;;;15.90;99.90;;;;;;4993486;28;20485;-47
2022/10/15 15:32:42;;;;;;;8.48;6.78;;;15.90;99.90;;;;;;5013730;28;20061;-45
2022/10/15 15:42:33;;;;;;;8.18;6.53;;;15.90;99.90;;;;;;5005588;28;20458;-46
2022/10/15 15:49:31;;;;;;;6.30;5.68;;;15.90;99.90;;;;;;5017736;28;20456;-46
2022/10/15 15:55:52;;;;;;;9.15;6.30;;;15.80;99.90;;;;;;5015556;28;20036;-43
2022/10/15 16:12:22;;;;;;;6.93;5.88;;;15.60;99.90;;;;;;5014853;28;20051;-40
2022/10/15 16:22:51;;;;;;;5.22;4.72;;;15.50;99.90;;;;;;4994503;28;20097;-41
2022/10/15 16:43:46;;;;;;;9.05;7.45;;;15.20;99.90;;;;;;4990177;28;20101;-42
2022/10/15 16:49:57;;;;;;;8.68;6.05;;;15.10;99.90;;;;;;4989763;28;20030;-44
2022/10/15 16:56:06;;;;;;;12.57;7.65;;;15.00;99.90;;;;;;4999356;28;20114;-47
2022/10/15 17:02:15;;;;;;;18.70;5.38;;;14.90;99.90;;;;;;4992870;28;20068;-44
2022/10/15 17:08:22;;;;;;;10.02;6.80;;;14.80;99.90;;;;;;4989720;28;20489;-44
2022/10/15 17:22:07;;;;;;;10.88;5.00;;;14.50;99.90;;;;;;4988189;28;20046;-45
2022/10/15 17:28:14;;;;;;;6.30;4.93;;;14.40;99.90;;;;;;4990476;28;20042;-44
2022/10/15 17:38:04;;;;;;;6.47;4.30;;;14.20;99.90;;;;;;4997618;28;20073;-41
2022/10/15 17:44:12;;;;;;;10.52;3.90;;;14.10;99.90;;;;;;4996831;28;20025;-44
2022/10/15 17:50:20;;;;;;;7.53;3.80;;;14.10;99.90;;;;;;4998131;28;20037;-43
2022/10/15 17:56:30;;;;;;;4.28;3.10;;;14.00;99.90;;;;;;4995918;28;20486;-43
2022/10/15 18:06:20;;;;;;;5.97;2.75;;;13.90;99.90;;;;;;4996095;28;20486;-44
2022/10/15 18:12:35;;;;;;;12.77;3.08;;;13.80;99.90;;;;;;4999555;28;20235;-48
2022/10/15 18:22:50;;;;;;;7.45;2.85;;;13.70;99.90;;;;;;4990221;28;20092;-43
2022/10/15 18:36:09;;;;;;;9.50;2.83;;;13.50;99.90;;;;;;4988039;28;20030;-46
2022/10/15 18:45:57;;;;;;;8.00;2.47;;;13.40;99.90;;;;;;4991013;28;20125;-46
2022/10/15 18:52:19;;;;;;;4.60;2.30;;;13.40;99.90;;;;;;5003655;28;20040;-45
2022/10/15 18:58:26;;;;;;;8.63;2.47;;;13.40;99.90;;;;;;4994105;28;20061;-43
2022/10/15 19:05:30;;;;;;;11.77;4.75;;;13.30;99.90;;;;;;4991787;28;20438;-45
2022/10/15 19:11:40;;;;;;;13.57;5.63;;;13.30;99.90;;;;;;4993076;28;20088;-44
2022/10/15 19:17:47;;;;;;;14.25;5.53;;;13.30;99.90;;;;;;4990873;28;20496;-42
2022/10/15 19:28:12;;;;;;;11.77;5.85;;;13.20;99.90;;;;;;4991037;28;20041;-46
2022/10/15 19:34:21;;;;;;;11.10;4.38;;;13.20;99.90;;;;;;5003292;28;20234;-43
2022/10/15 19:44:12;;;;;;;8.05;4.85;;;13.10;99.90;;;;;;4993299;28;20080;-43
2022/10/15 19:57:50;;;;;;;12.77;6.20;;;13.10;99.90;;;;;;4993095;28;20037;-46
2022/10/15 20:04:01;;;;;;;14.13;5.70;;;13.10;99.90;;;;;;4993689;28;20123;-43
2022/10/15 20:10:09;;;;;;;12.07;4.93;;;13.10;99.90;;;;;;4989870;28;20030;-44
2022/10/15 20:16:16;;;;;;;13.73;5.50;;;13.20;99.90;;;;;;4990911;28;20021;-45
2022/10/15 20:22:25;;;;;;;15.43;5.43;;;13.10;99.90;;;;;;4998523;28;20033;-43
2022/10/15 20:33:05;;;;;;;14.45;4.82;;;13.10;99.90;;;;;;4999572;28;20042;-46
2022/10/15 20:39:14;;;;;;;19.60;5.43;;;13.10;99.90;;;;;;4994359;28;20482;-42
2022/10/15 20:49:05;;;;;;;18.55;5.43;;;13.10;99.90;;;;;;4991449;28;20076;-46
2022/10/15 20:55:14;;;;;;;15.52;5.03;;;13.00;99.90;;;;;;4990947;28;20077;-46
2022/10/15 21:19:09;;;;;;;12.85;2.97;;;13.10;99.90;;;;;;4998703;28;20129;-45
2022/10/15 21:29:48;;;;;;;10.70;2.67;;;13.10;99.90;;;;;;5017448;28;20451;-43
2022/10/15 21:36:12;;;;;;;10.27;2.03;;;13.10;99.90;;;;;;4993986;28;20425;-44
2022/10/15 21:42:19;;;;;;;8.00;1.92;;;13.10;99.90;;;;;;4992916;28;20034;-43
2022/10/15 21:48:27;;;;;;;8.52;1.90;;;13.10;99.90;;;;;;4994068;28;20085;-43
2022/10/15 21:59:03;;;;;;;12.68;1.92;;;13.10;99.90;;;;;;4935300;29;20530;-44
2022/10/15 22:05:12;;;;;;;9.75;2.05;;;13.10;99.90;;;;;;4953862;28;20078;-45
2022/10/15 22:11:20;;;;;;;10.65;2.15;;;13.10;99.90;;;;;;4982274;28;20077;-44
2022/10/15 22:24:51;;;;;;;10.55;2.13;;;12.90;99.90;;;;;;4985587;28;20057;-43
2022/10/15 22:34:46;;;;;;;14.23;2.33;;;12.90;99.90;;;;;;4997519;28;20025;-44
2022/10/15 23:02:24;;;;;;;11.75;2.65;;;12.70;99.90;;;;;;4984554;28;20041;-44
2022/10/15 23:08:32;;;;;;;17.50;3.10;;;12.70;99.90;;;;;;4994264;28;20025;-44
2022/10/15 23:14:58;;;;;;;7.93;2.42;;;12.70;99.90;;;;;;4994001;28;20434;-45
2022/10/15 23:21:10;;;;;;;7.97;2.40;;;12.60;99.90;;;;;;4995868;28;20376;-48
2022/10/15 23:27:18;;;;;;;8.63;2.10;;;12.60;99.90;;;;;;4994196;28;20421;-45
2022/10/15 23:41:59;;;;;;;10.13;2.78;;;12.60;99.90;;;;;;5006226;28;20064;-46
2022/10/15 23:51:47;;;;;;;12.00;2.42;;;12.60;99.90;;;;;;5012842;28;20029;-45
